sensor_id;sensor_type;location;lat;lon;timestamp;P1;durP1;ratioP1;P2;durP2;ratioP2
20080;SDS011;10200;49.232;9.222;2023-07-02T00:01:20;2.05;;;1.85;;
20080;SDS011;10200;49.232;9.222;2023-07-02T00:03:46;1.67;;;1.42;;
20080;SDS011;10200;49.232;9.222;2023-07-02T00:06:12;2.72;;;1.98;;
20080;SDS011;10200;49.232;9.222;2023-07-02T00:08:37;2.50;;;1.83;;
20080;SDS011;10200;49.232;9.222;2023-07-02T00:11:03;2.00;;;1.67;;
20080;SDS011;10200;49.232;9.222;2023-07-02T00:13:28;1.77;;;1.58;;
20080;SDS011;10200;49.232;9.222;2023-07-02T00:15:54;2.20;;;1.98;;
20080;SDS011;10200;49.232;9.222;2023-07-02T00:18:20;3.60;;;2.30;;
20080;SDS011;10200;49.232;9.222;2023-07-02T00:20:45;2.47;;;1.83;;
20080;SDS011;10200;49.232;9.222;2023-07-02T00:23:11;2.47;;;1.95;;
20080;SDS011;10200;49.232;9.222;2023-07-02T00:25:37;2.38;;;2.00;;
20080;SDS011;10200;49.232;9.222;2023-07-02T00:28:02;3.42;;;1.80;;
20080;SDS011;10200;49.232;9.222;2023-07-02T00:30:28;3.22;;;1.65;;
20080;SDS011;10200;49.232;9.222;2023-07-02T00:32:54;3.65;;;2.33;;
20080;SDS011;10200;49.232;9.222;2023-07-02T00:35:20;2.92;;;1.60;;
20080;SDS011;10200;49.232;9.222;2023-07-02T00:37:46;3.20;;;2.30;;
20080;SDS011;10200;49.232;9.222;2023-07-02T00:40:12;2.25;;;1.90;;
20080;SDS011;10200;49.232;9.222;2023-07-02T00:42:38;3.28;;;1.95;;
20080;SDS011;10200;49.232;9.222;2023-07-02T00:45:04;2.13;;;1.83;;
20080;SDS011;10200;49.232;9.222;2023-07-02T00:47:32;2.33;;;1.90;;
20080;SDS011;10200;49.232;9.222;2023-07-02T00:49:59;4.18;;;2.22;;
20080;SDS011;10200;49.232;9.222;2023-07-02T00:52:26;2.75;;;2.10;;
20080;SDS011;10200;49.232;9.222;2023-07-02T00:54:52;2.30;;;1.98;;
20080;SDS011;10200;49.232;9.222;2023-07-02T00:57:18;2.67;;;2.13;;
20080;SDS011;10200;49.232;9.222;2023-07-02T00:59:44;2.70;;;1.98;;
20080;SDS011;10200;49.232;9.222;2023-07-02T01:02:10;2.22;;;1.73;;
20080;SDS011;10200;49.232;9.222;2023-07-02T01:04:38;4.18;;;2.42;;
20080;SDS011;10200;49.232;9.222;2023-07-02T01:07:04;2.47;;;2.17;;
20080;SDS011;10200;49.232;9.222;2023-07-02T01:09:34;2.65;;;2.30;;
20080;SDS011;10200;49.232;9.222;2023-07-02T01:12:02;3.03;;;1.95;;
20080;SDS011;10200;49.232;9.222;2023-07-02T01:14:34;3.53;;;1.92;;
20080;SDS011;10200;49.232;9.222;2023-07-02T01:17:11;5.22;;;2.13;;
20080;SDS011;10200;49.232;9.222;2023-07-02T01:22:20;2.85;;;2.08;;
20080;SDS011;10200;49.232;9.222;2023-07-02T01:24:47;2.92;;;2.28;;
20080;SDS011;10200;49.232;9.222;2023-07-02T01:27:14;2.75;;;1.75;;
20080;SDS011;10200;49.232;9.222;2023-07-02T01:29:41;3.42;;;1.95;;
20080;SDS011;10200;49.232;9.222;2023-07-02T01:32:07;2.38;;;2.10;;
20080;SDS011;10200;49.232;9.222;2023-07-02T01:34:36;3.08;;;2.20;;
20080;SDS011;10200;49.232;9.222;2023-07-02T01:37:02;2.70;;;2.10;;
20080;SDS011;10200;49.232;9.222;2023-07-02T01:39:29;8.32;;;2.05;;
20080;SDS011;10200;49.232;9.222;2023-07-02T01:41:56;3.55;;;2.10;;
20080;SDS011;10200;49.232;9.222;2023-07-02T01:44:34;4.60;;;1.75;;
20080;SDS011;10200;49.232;9.222;2023-07-02T01:47:00;3.60;;;2.22;;
20080;SDS011;10200;49.232;9.222;2023-07-02T01:49:25;4.22;;;2.47;;
20080;SDS011;10200;49.232;9.222;2023-07-02T01:51:51;5.07;;;2.30;;
20080;SDS011;10200;49.232;9.222;2023-07-02T01:54:18;3.33;;;2.03;;
20080;SDS011;10200;49.232;9.222;2023-07-02T01:56:45;2.03;;;1.83;;
20080;SDS011;10200;49.232;9.222;2023-07-02T01:59:11;2.20;;;1.95;;
20080;SDS011;10200;49.232;9.222;2023-07-02T02:01:38;2.72;;;2.00;;
20080;SDS011;10200;49.232;9.222;2023-07-02T02:04:05;4.07;;;2.08;;
20080;SDS011;10200;49.232;9.222;2023-07-02T02:06:32;3.03;;;2.17;;
20080;SDS011;10200;49.232;9.222;2023-07-02T02:08:58;4.22;;;2.40;;
20080;SDS011;10200;49.232;9.222;2023-07-02T02:11:24;3.67;;;2.20;;
20080;SDS011;10200;49.232;9.222;2023-07-02T02:13:49;3.00;;;2.03;;
20080;SDS011;10200;49.232;9.222;2023-07-02T02:16:15;6.10;;;2.20;;
20080;SDS011;10200;49.232;9.222;2023-07-02T02:18:41;3.75;;;2.17;;
20080;SDS011;10200;49.232;9.222;2023-07-02T02:21:08;3.38;;;2.15;;
20080;SDS011;10200;49.232;9.222;2023-07-02T02:23:34;4.50;;;2.08;;
20080;SDS011;10200;49.232;9.222;2023-07-02T02:26:00;4.80;;;2.03;;
20080;SDS011;10200;49.232;9.222;2023-07-02T02:28:26;3.25;;;1.77;;
20080;SDS011;10200;49.232;9.222;2023-07-02T02:30:51;3.08;;;1.95;;
20080;SDS011;10200;49.232;9.222;2023-07-02T02:33:17;4.10;;;1.75;;
20080;SDS011;10200;49.232;9.222;2023-07-02T02:35:42;2.63;;;1.90;;
20080;SDS011;10200;49.232;9.222;2023-07-02T02:38:10;2.35;;;2.00;;
20080;SDS011;10200;49.232;9.222;2023-07-02T02:40:37;1.88;;;1.63;;
20080;SDS011;10200;49.232;9.222;2023-07-02T02:43:03;6.03;;;1.95;;
20080;SDS011;10200;49.232;9.222;2023-07-02T02:45:28;5.40;;;2.13;;
20080;SDS011;10200;49.232;9.222;2023-07-02T02:47:54;2.47;;;1.80;;
20080;SDS011;10200;49.232;9.222;2023-07-02T02:50:20;6.13;;;2.20;;
20080;SDS011;10200;49.232;9.222;2023-07-02T02:52:45;2.83;;;1.95;;
20080;SDS011;10200;49.232;9.222;2023-07-02T02:55:11;4.95;;;2.92;;
20080;SDS011;10200;49.232;9.222;2023-07-02T02:57:38;3.55;;;2.40;;
20080;SDS011;10200;49.232;9.222;2023-07-02T03:00:04;4.00;;;2.33;;
20080;SDS011;10200;49.232;9.222;2023-07-02T03:02:31;3.15;;;2.45;;
20080;SDS011;10200;49.232;9.222;2023-07-02T03:04:57;4.70;;;2.55;;
20080;SDS011;10200;49.232;9.222;2023-07-02T03:07:27;5.22;;;2.60;;
20080;SDS011;10200;49.232;9.222;2023-07-02T03:09:53;2.80;;;2.10;;
20080;SDS011;10200;49.232;9.222;2023-07-02T03:12:18;4.40;;;2.65;;
20080;SDS011;10200;49.232;9.222;2023-07-02T03:14:44;4.55;;;2.85;;
20080;SDS011;10200;49.232;9.222;2023-07-02T03:17:10;3.38;;;2.35;;
20080;SDS011;10200;49.232;9.222;2023-07-02T03:19:35;5.50;;;2.35;;
20080;SDS011;10200;49.232;9.222;2023-07-02T03:22:01;3.50;;;2.78;;
20080;SDS011;10200;49.232;9.222;2023-07-02T03:24:27;7.85;;;2.42;;
20080;SDS011;10200;49.232;9.222;2023-07-02T03:26:52;3.75;;;2.70;;
20080;SDS011;10200;49.232;9.222;2023-07-02T03:29:18;4.85;;;2.63;;
20080;SDS011;10200;49.232;9.222;2023-07-02T03:31:45;6.07;;;3.10;;
20080;SDS011;10200;49.232;9.222;2023-07-02T03:34:12;7.30;;;2.67;;
20080;SDS011;10200;49.232;9.222;2023-07-02T03:36:38;7.28;;;3.55;;
20080;SDS011;10200;49.232;9.222;2023-07-02T03:39:04;5.75;;;3.03;;
20080;SDS011;10200;49.232;9.222;2023-07-02T03:41:30;5.05;;;3.13;;
20080;SDS011;10200;49.232;9.222;2023-07-02T03:43:56;4.57;;;3.03;;
20080;SDS011;10200;49.232;9.222;2023-07-02T03:46:22;6.57;;;3.67;;
20080;SDS011;10200;49.232;9.222;2023-07-02T03:48:47;5.18;;;3.55;;
20080;SDS011;10200;49.232;9.222;2023-07-02T03:51:13;5.82;;;3.03;;
20080;SDS011;10200;49.232;9.222;2023-07-02T03:53:42;6.70;;;3.10;;
20080;SDS011;10200;49.232;9.222;2023-07-02T03:56:08;7.93;;;3.40;;
20080;SDS011;10200;49.232;9.222;2023-07-02T03:58:34;7.47;;;3.45;;
20080;SDS011;10200;49.232;9.222;2023-07-02T04:01:00;5.95;;;3.78;;
20080;SDS011;10200;49.232;9.222;2023-07-02T04:03:25;6.47;;;3.25;;
20080;SDS011;10200;49.232;9.222;2023-07-02T04:05:51;7.05;;;3.05;;
20080;SDS011;10200;49.232;9.222;2023-07-02T04:08:17;4.65;;;3.13;;
20080;SDS011;10200;49.232;9.222;2023-07-02T04:10:45;4.40;;;3.10;;
20080;SDS011;10200;49.232;9.222;2023-07-02T04:13:11;5.45;;;3.00;;
20080;SDS011;10200;49.232;9.222;2023-07-02T04:15:37;6.32;;;2.92;;
20080;SDS011;10200;49.232;9.222;2023-07-02T04:18:02;6.80;;;3.47;;
20080;SDS011;10200;49.232;9.222;2023-07-02T04:20:28;5.18;;;3.17;;
20080;SDS011;10200;49.232;9.222;2023-07-02T04:22:54;7.60;;;2.85;;
20080;SDS011;10200;49.232;9.222;2023-07-02T04:25:20;6.53;;;3.10;;
20080;SDS011;10200;49.232;9.222;2023-07-02T04:27:46;4.28;;;2.83;;
20080;SDS011;10200;49.232;9.222;2023-07-02T04:30:12;5.93;;;3.17;;
20080;SDS011;10200;49.232;9.222;2023-07-02T04:32:39;9.02;;;3.58;;
20080;SDS011;10200;49.232;9.222;2023-07-02T04:35:05;5.20;;;3.13;;
20080;SDS011;10200;49.232;9.222;2023-07-02T04:37:32;6.30;;;3.90;;
20080;SDS011;10200;49.232;9.222;2023-07-02T04:39:58;6.82;;;3.50;;
20080;SDS011;10200;49.232;9.222;2023-07-02T04:42:23;9.38;;;4.15;;
20080;SDS011;10200;49.232;9.222;2023-07-02T04:45:02;9.43;;;4.05;;
20080;SDS011;10200;49.232;9.222;2023-07-02T04:47:29;7.50;;;3.65;;
20080;SDS011;10200;49.232;9.222;2023-07-02T04:49:55;6.00;;;3.55;;
20080;SDS011;10200;49.232;9.222;2023-07-02T04:52:21;5.65;;;3.13;;
20080;SDS011;10200;49.232;9.222;2023-07-02T04:54:47;6.72;;;3.08;;
20080;SDS011;10200;49.232;9.222;2023-07-02T04:57:13;6.07;;;3.45;;
20080;SDS011;10200;49.232;9.222;2023-07-02T04:59:40;11.43;;;3.70;;
20080;SDS011;10200;49.232;9.222;2023-07-02T05:02:10;7.28;;;3.53;;
20080;SDS011;10200;49.232;9.222;2023-07-02T05:04:36;5.95;;;3.63;;
20080;SDS011;10200;49.232;9.222;2023-07-02T05:07:04;7.65;;;3.70;;
20080;SDS011;10200;49.232;9.222;2023-07-02T05:09:30;6.95;;;3.42;;
20080;SDS011;10200;49.232;9.222;2023-07-02T05:11:59;7.05;;;3.65;;
20080;SDS011;10200;49.232;9.222;2023-07-02T05:14:25;7.13;;;3.58;;
20080;SDS011;10200;49.232;9.222;2023-07-02T05:16:50;7.40;;;3.28;;
20080;SDS011;10200;49.232;9.222;2023-07-02T05:19:16;7.50;;;3.47;;
20080;SDS011;10200;49.232;9.222;2023-07-02T05:21:42;6.30;;;3.33;;
20080;SDS011;10200;49.232;9.222;2023-07-02T05:24:07;10.13;;;3.70;;
20080;SDS011;10200;49.232;9.222;2023-07-02T05:26:33;5.30;;;3.17;;
20080;SDS011;10200;49.232;9.222;2023-07-02T05:29:00;5.75;;;3.05;;
20080;SDS011;10200;49.232;9.222;2023-07-02T05:31:26;7.07;;;3.38;;
20080;SDS011;10200;49.232;9.222;2023-07-02T05:33:52;6.50;;;3.33;;
20080;SDS011;10200;49.232;9.222;2023-07-02T05:36:19;6.93;;;3.67;;
20080;SDS011;10200;49.232;9.222;2023-07-02T05:38:45;8.25;;;3.22;;
20080;SDS011;10200;49.232;9.222;2023-07-02T05:41:11;5.47;;;3.28;;
20080;SDS011;10200;49.232;9.222;2023-07-02T05:43:42;7.15;;;3.33;;
20080;SDS011;10200;49.232;9.222;2023-07-02T05:46:08;8.48;;;3.58;;
20080;SDS011;10200;49.232;9.222;2023-07-02T05:48:33;6.07;;;3.30;;
20080;SDS011;10200;49.232;9.222;2023-07-02T05:50:59;11.30;;;4.28;;
20080;SDS011;10200;49.232;9.222;2023-07-02T05:53:26;8.77;;;4.53;;
20080;SDS011;10200;49.232;9.222;2023-07-02T05:55:51;7.63;;;3.38;;
20080;SDS011;10200;49.232;9.222;2023-07-02T05:58:17;5.78;;;3.40;;
20080;SDS011;10200;49.232;9.222;2023-07-02T06:00:44;6.55;;;3.33;;
20080;SDS011;10200;49.232;9.222;2023-07-02T06:03:14;9.80;;;3.65;;
20080;SDS011;10200;49.232;9.222;2023-07-02T06:05:48;5.68;;;3.05;;
20080;SDS011;10200;49.232;9.222;2023-07-02T06:08:17;7.00;;;3.83;;
20080;SDS011;10200;49.232;9.222;2023-07-02T06:10:43;6.50;;;3.60;;
20080;SDS011;10200;49.232;9.222;2023-07-02T06:13:12;6.63;;;3.38;;
20080;SDS011;10200;49.232;9.222;2023-07-02T06:15:38;6.05;;;3.50;;
20080;SDS011;10200;49.232;9.222;2023-07-02T06:18:04;8.20;;;3.97;;
20080;SDS011;10200;49.232;9.222;2023-07-02T06:20:30;5.25;;;3.42;;
20080;SDS011;10200;49.232;9.222;2023-07-02T06:22:56;10.23;;;4.03;;
20080;SDS011;10200;49.232;9.222;2023-07-02T06:25:22;8.52;;;4.10;;
20080;SDS011;10200;49.232;9.222;2023-07-02T06:27:47;7.05;;;4.43;;
20080;SDS011;10200;49.232;9.222;2023-07-02T06:30:13;6.95;;;4.18;;
20080;SDS011;10200;49.232;9.222;2023-07-02T06:32:40;7.85;;;4.93;;
20080;SDS011;10200;49.232;9.222;2023-07-02T06:35:06;9.57;;;4.82;;
20080;SDS011;10200;49.232;9.222;2023-07-02T06:37:32;11.85;;;4.88;;
20080;SDS011;10200;49.232;9.222;2023-07-02T06:39:59;10.93;;;5.40;;
20080;SDS011;10200;49.232;9.222;2023-07-02T06:42:28;10.15;;;5.50;;
20080;SDS011;10200;49.232;9.222;2023-07-02T06:44:54;8.52;;;5.20;;
20080;SDS011;10200;49.232;9.222;2023-07-02T06:47:19;10.30;;;5.75;;
20080;SDS011;10200;49.232;9.222;2023-07-02T06:49:45;8.18;;;5.72;;
20080;SDS011;10200;49.232;9.222;2023-07-02T06:52:10;7.35;;;5.07;;
20080;SDS011;10200;49.232;9.222;2023-07-02T06:54:39;12.70;;;5.70;;
20080;SDS011;10200;49.232;9.222;2023-07-02T06:57:06;11.82;;;6.57;;
20080;SDS011;10200;49.232;9.222;2023-07-02T06:59:32;10.65;;;6.00;;
20080;SDS011;10200;49.232;9.222;2023-07-02T07:01:59;9.75;;;5.85;;
20080;SDS011;10200;49.232;9.222;2023-07-02T07:04:24;12.18;;;6.47;;
20080;SDS011;10200;49.232;9.222;2023-07-02T07:06:50;8.88;;;6.13;;
20080;SDS011;10200;49.232;9.222;2023-07-02T07:09:15;10.48;;;6.20;;
20080;SDS011;10200;49.232;9.222;2023-07-02T07:11:43;12.18;;;6.95;;
20080;SDS011;10200;49.232;9.222;2023-07-02T07:14:08;10.88;;;6.55;;
20080;SDS011;10200;49.232;9.222;2023-07-02T07:16:34;14.48;;;6.97;;
20080;SDS011;10200;49.232;9.222;2023-07-02T07:19:00;11.82;;;7.60;;
20080;SDS011;10200;49.232;9.222;2023-07-02T07:21:26;13.80;;;7.18;;
20080;SDS011;10200;49.232;9.222;2023-07-02T07:23:51;13.68;;;7.55;;
20080;SDS011;10200;49.232;9.222;2023-07-02T07:26:17;14.52;;;7.35;;
20080;SDS011;10200;49.232;9.222;2023-07-02T07:28:43;16.20;;;8.18;;
20080;SDS011;10200;49.232;9.222;2023-07-02T07:31:09;14.82;;;8.40;;
20080;SDS011;10200;49.232;9.222;2023-07-02T07:33:34;12.70;;;7.63;;
20080;SDS011;10200;49.232;9.222;2023-07-02T07:36:00;16.52;;;9.60;;
20080;SDS011;10200;49.232;9.222;2023-07-02T07:38:26;14.80;;;8.70;;
20080;SDS011;10200;49.232;9.222;2023-07-02T07:40:52;14.27;;;7.95;;
20080;SDS011;10200;49.232;9.222;2023-07-02T07:43:17;14.82;;;8.48;;
20080;SDS011;10200;49.232;9.222;2023-07-02T07:45:43;13.05;;;8.20;;
20080;SDS011;10200;49.232;9.222;2023-07-02T07:48:09;14.60;;;9.30;;
20080;SDS011;10200;49.232;9.222;2023-07-02T07:50:35;16.77;;;8.75;;
20080;SDS011;10200;49.232;9.222;2023-07-02T07:53:00;14.90;;;9.27;;
20080;SDS011;10200;49.232;9.222;2023-07-02T07:55:27;15.52;;;9.43;;
20080;SDS011;10200;49.232;9.222;2023-07-02T07:57:52;17.88;;;9.68;;
20080;SDS011;10200;49.232;9.222;2023-07-02T08:00:18;19.58;;;9.52;;
20080;SDS011;10200;49.232;9.222;2023-07-02T08:02:46;16.92;;;8.68;;
20080;SDS011;10200;49.232;9.222;2023-07-02T08:05:12;13.25;;;8.63;;
20080;SDS011;10200;49.232;9.222;2023-07-02T08:07:38;17.55;;;8.85;;
20080;SDS011;10200;49.232;9.222;2023-07-02T08:10:05;11.30;;;8.23;;
20080;SDS011;10200;49.232;9.222;2023-07-02T08:12:33;14.90;;;9.30;;
20080;SDS011;10200;49.232;9.222;2023-07-02T08:14:59;13.35;;;9.10;;
20080;SDS011;10200;49.232;9.222;2023-07-02T08:17:25;13.10;;;8.90;;
20080;SDS011;10200;49.232;9.222;2023-07-02T08:19:50;21.45;;;10.20;;
20080;SDS011;10200;49.232;9.222;2023-07-02T08:22:16;14.32;;;9.70;;
20080;SDS011;10200;49.232;9.222;2023-07-02T08:24:42;17.20;;;11.15;;
20080;SDS011;10200;49.232;9.222;2023-07-02T08:27:08;19.38;;;10.32;;
20080;SDS011;10200;49.232;9.222;2023-07-02T08:29:35;16.98;;;10.43;;
20080;SDS011;10200;49.232;9.222;2023-07-02T08:32:00;17.70;;;10.77;;
20080;SDS011;10200;49.232;9.222;2023-07-02T08:34:26;16.60;;;9.65;;
20080;SDS011;10200;49.232;9.222;2023-07-02T08:36:52;17.90;;;9.65;;
20080;SDS011;10200;49.232;9.222;2023-07-02T08:39:18;21.33;;;10.25;;
20080;SDS011;10200;49.232;9.222;2023-07-02T08:41:47;18.02;;;9.38;;
20080;SDS011;10200;49.232;9.222;2023-07-02T08:44:13;17.90;;;10.70;;
20080;SDS011;10200;49.232;9.222;2023-07-02T08:46:40;15.52;;;9.27;;
20080;SDS011;10200;49.232;9.222;2023-07-02T08:49:07;20.63;;;12.23;;
20080;SDS011;10200;49.232;9.222;2023-07-02T08:51:33;16.17;;;9.68;;
20080;SDS011;10200;49.232;9.222;2023-07-02T08:53:59;16.80;;;10.40;;
20080;SDS011;10200;49.232;9.222;2023-07-02T08:56:26;22.55;;;10.45;;
20080;SDS011;10200;49.232;9.222;2023-07-02T08:58:52;17.02;;;10.35;;
20080;SDS011;10200;49.232;9.222;2023-07-02T09:01:18;20.58;;;10.90;;
20080;SDS011;10200;49.232;9.222;2023-07-02T09:03:44;15.60;;;8.73;;
20080;SDS011;10200;49.232;9.222;2023-07-02T09:06:10;15.50;;;10.00;;
20080;SDS011;10200;49.232;9.222;2023-07-02T09:08:37;17.20;;;9.85;;
20080;SDS011;10200;49.232;9.222;2023-07-02T09:16:31;19.45;;;10.52;;
20080;SDS011;10200;49.232;9.222;2023-07-02T09:21:37;14.55;;;9.77;;
20080;SDS011;10200;49.232;9.222;2023-07-02T09:26:47;15.95;;;9.05;;
20080;SDS011;10200;49.232;9.222;2023-07-02T09:29:23;15.98;;;9.90;;
20080;SDS011;10200;49.232;9.222;2023-07-02T09:32:00;16.02;;;9.60;;
20080;SDS011;10200;49.232;9.222;2023-07-02T09:34:28;12.88;;;9.40;;
20080;SDS011;10200;49.232;9.222;2023-07-02T09:36:58;14.25;;;8.80;;
20080;SDS011;10200;49.232;9.222;2023-07-02T09:39:28;19.80;;;10.20;;
20080;SDS011;10200;49.232;9.222;2023-07-02T09:41:56;14.10;;;9.98;;
20080;SDS011;10200;49.232;9.222;2023-07-02T09:44:29;18.20;;;11.27;;
20080;SDS011;10200;49.232;9.222;2023-07-02T09:47:03;18.85;;;10.02;;
20080;SDS011;10200;49.232;9.222;2023-07-02T09:49:37;16.70;;;9.55;;
20080;SDS011;10200;49.232;9.222;2023-07-02T09:52:09;15.98;;;9.90;;
20080;SDS011;10200;49.232;9.222;2023-07-02T09:54:36;16.15;;;9.90;;
20080;SDS011;10200;49.232;9.222;2023-07-02T09:57:02;22.33;;;11.13;;
20080;SDS011;10200;49.232;9.222;2023-07-02T09:59:29;18.15;;;10.90;;
20080;SDS011;10200;49.232;9.222;2023-07-02T10:01:55;16.55;;;11.05;;
20080;SDS011;10200;49.232;9.222;2023-07-02T10:04:22;21.45;;;11.18;;
20080;SDS011;10200;49.232;9.222;2023-07-02T10:06:53;19.02;;;10.63;;
20080;SDS011;10200;49.232;9.222;2023-07-02T10:09:20;21.15;;;11.90;;
20080;SDS011;10200;49.232;9.222;2023-07-02T10:11:58;19.88;;;11.50;;
20080;SDS011;10200;49.232;9.222;2023-07-02T10:14:24;19.33;;;10.73;;
20080;SDS011;10200;49.232;9.222;2023-07-02T10:16:53;17.77;;;11.15;;
20080;SDS011;10200;49.232;9.222;2023-07-02T10:19:21;18.42;;;10.90;;
20080;SDS011;10200;49.232;9.222;2023-07-02T10:21:59;16.95;;;11.50;;
20080;SDS011;10200;49.232;9.222;2023-07-02T10:24:28;21.17;;;12.88;;
20080;SDS011;10200;49.232;9.222;2023-07-02T10:26:58;21.83;;;12.93;;
20080;SDS011;10200;49.232;9.222;2023-07-02T10:29:25;19.15;;;12.07;;
20080;SDS011;10200;49.232;9.222;2023-07-02T10:31:56;21.35;;;11.68;;
20080;SDS011;10200;49.232;9.222;2023-07-02T10:36:57;19.33;;;12.25;;
20080;SDS011;10200;49.232;9.222;2023-07-02T10:39:25;17.85;;;12.45;;
20080;SDS011;10200;49.232;9.222;2023-07-02T10:41:51;18.08;;;11.07;;
20080;SDS011;10200;49.232;9.222;2023-07-02T10:44:17;21.27;;;12.35;;
20080;SDS011;10200;49.232;9.222;2023-07-02T10:46:43;17.85;;;11.38;;
20080;SDS011;10200;49.232;9.222;2023-07-02T10:49:09;20.63;;;11.80;;
20080;SDS011;10200;49.232;9.222;2023-07-02T10:51:38;19.10;;;12.45;;
20080;SDS011;10200;49.232;9.222;2023-07-02T10:54:05;24.38;;;12.57;;
20080;SDS011;10200;49.232;9.222;2023-07-02T10:56:31;21.90;;;12.52;;
20080;SDS011;10200;49.232;9.222;2023-07-02T10:58:57;21.40;;;12.93;;
20080;SDS011;10200;49.232;9.222;2023-07-02T11:01:24;20.83;;;12.57;;
20080;SDS011;10200;49.232;9.222;2023-07-02T11:04:00;22.08;;;13.27;;
20080;SDS011;10200;49.232;9.222;2023-07-02T11:06:28;20.05;;;12.25;;
20080;SDS011;10200;49.232;9.222;2023-07-02T11:08:55;21.92;;;13.68;;
20080;SDS011;10200;49.232;9.222;2023-07-02T11:11:21;17.67;;;11.45;;
20080;SDS011;10200;49.232;9.222;2023-07-02T11:13:48;23.02;;;12.90;;
20080;SDS011;10200;49.232;9.222;2023-07-02T11:16:22;20.05;;;12.80;;
20080;SDS011;10200;49.232;9.222;2023-07-02T11:19:09;16.65;;;10.65;;
20080;SDS011;10200;49.232;9.222;2023-07-02T11:21:35;17.52;;;11.50;;
20080;SDS011;10200;49.232;9.222;2023-07-02T11:24:05;19.73;;;12.23;;
20080;SDS011;10200;49.232;9.222;2023-07-02T11:26:36;20.33;;;12.00;;
20080;SDS011;10200;49.232;9.222;2023-07-02T11:29:02;19.83;;;11.48;;
20080;SDS011;10200;49.232;9.222;2023-07-02T11:31:28;19.45;;;12.57;;
20080;SDS011;10200;49.232;9.222;2023-07-02T11:33:53;22.02;;;12.93;;
20080;SDS011;10200;49.232;9.222;2023-07-02T11:36:23;21.17;;;11.57;;
20080;SDS011;10200;49.232;9.222;2023-07-02T11:38:55;17.27;;;11.57;;
20080;SDS011;10200;49.232;9.222;2023-07-02T11:41:21;20.27;;;11.57;;
20080;SDS011;10200;49.232;9.222;2023-07-02T11:43:47;23.25;;;12.10;;
20080;SDS011;10200;49.232;9.222;2023-07-02T11:46:13;17.83;;;12.02;;
20080;SDS011;10200;49.232;9.222;2023-07-02T11:48:39;18.05;;;11.02;;
20080;SDS011;10200;49.232;9.222;2023-07-02T11:51:05;19.13;;;10.50;;
20080;SDS011;10200;49.232;9.222;2023-07-02T11:53:31;16.63;;;11.73;;
20080;SDS011;10200;49.232;9.222;2023-07-02T11:55:57;19.23;;;12.65;;
20080;SDS011;10200;49.232;9.222;2023-07-02T11:58:22;22.80;;;12.45;;
20080;SDS011;10200;49.232;9.222;2023-07-02T12:00:48;19.38;;;12.23;;
20080;SDS011;10200;49.232;9.222;2023-07-02T12:03:14;17.17;;;11.07;;
20080;SDS011;10200;49.232;9.222;2023-07-02T12:05:39;20.17;;;12.23;;
20080;SDS011;10200;49.232;9.222;2023-07-02T12:08:05;19.50;;;11.32;;
20080;SDS011;10200;49.232;9.222;2023-07-02T12:10:31;23.75;;;11.75;;
20080;SDS011;10200;49.232;9.222;2023-07-02T12:12:56;17.33;;;11.00;;
20080;SDS011;10200;49.232;9.222;2023-07-02T12:15:22;22.70;;;11.82;;
20080;SDS011;10200;49.232;9.222;2023-07-02T12:17:48;16.45;;;11.88;;
20080;SDS011;10200;49.232;9.222;2023-07-02T12:20:13;18.77;;;11.52;;
20080;SDS011;10200;49.232;9.222;2023-07-02T12:22:39;22.30;;;13.07;;
20080;SDS011;10200;49.232;9.222;2023-07-02T12:25:04;18.85;;;11.93;;
20080;SDS011;10200;49.232;9.222;2023-07-02T12:27:32;22.05;;;13.00;;
20080;SDS011;10200;49.232;9.222;2023-07-02T12:29:57;19.52;;;13.13;;
20080;SDS011;10200;49.232;9.222;2023-07-02T12:32:23;16.77;;;11.40;;
20080;SDS011;10200;49.232;9.222;2023-07-02T12:34:48;18.83;;;12.05;;
20080;SDS011;10200;49.232;9.222;2023-07-02T12:37:14;19.50;;;11.45;;
20080;SDS011;10200;49.232;9.222;2023-07-02T12:39:42;19.10;;;11.70;;
20080;SDS011;10200;49.232;9.222;2023-07-02T12:42:08;15.68;;;10.77;;
20080;SDS011;10200;49.232;9.222;2023-07-02T12:44:34;21.38;;;12.50;;
20080;SDS011;10200;49.232;9.222;2023-07-02T12:46:59;19.30;;;11.93;;
20080;SDS011;10200;49.232;9.222;2023-07-02T12:49:25;15.80;;;10.95;;
20080;SDS011;10200;49.232;9.222;2023-07-02T12:51:51;21.48;;;13.23;;
20080;SDS011;10200;49.232;9.222;2023-07-02T12:54:16;16.40;;;10.95;;
20080;SDS011;10200;49.232;9.222;2023-07-02T12:56:42;18.35;;;11.75;;
20080;SDS011;10200;49.232;9.222;2023-07-02T12:59:07;18.90;;;11.48;;
20080;SDS011;10200;49.232;9.222;2023-07-02T13:01:33;17.98;;;11.60;;
20080;SDS011;10200;49.232;9.222;2023-07-02T13:03:59;21.85;;;11.60;;
20080;SDS011;10200;49.232;9.222;2023-07-02T13:06:24;21.25;;;12.30;;
20080;SDS011;10200;49.232;9.222;2023-07-02T13:08:50;18.92;;;11.60;;
20080;SDS011;10200;49.232;9.222;2023-07-02T13:11:16;23.15;;;12.60;;
20080;SDS011;10200;49.232;9.222;2023-07-02T13:13:41;20.55;;;12.30;;
20080;SDS011;10200;49.232;9.222;2023-07-02T13:16:07;21.80;;;11.93;;
20080;SDS011;10200;49.232;9.222;2023-07-02T13:18:33;21.88;;;11.80;;
20080;SDS011;10200;49.232;9.222;2023-07-02T13:20:58;18.77;;;12.35;;
20080;SDS011;10200;49.232;9.222;2023-07-02T13:23:24;23.15;;;13.00;;
20080;SDS011;10200;49.232;9.222;2023-07-02T13:25:50;16.83;;;11.40;;
20080;SDS011;10200;49.232;9.222;2023-07-02T13:28:15;18.13;;;12.70;;
20080;SDS011;10200;49.232;9.222;2023-07-02T13:30:41;24.80;;;12.35;;
20080;SDS011;10200;49.232;9.222;2023-07-02T13:33:07;19.10;;;11.07;;
20080;SDS011;10200;49.232;9.222;2023-07-02T13:35:33;16.95;;;10.93;;
20080;SDS011;10200;49.232;9.222;2023-07-02T13:37:58;17.30;;;11.38;;
20080;SDS011;10200;49.232;9.222;2023-07-02T13:40:24;19.40;;;12.57;;
20080;SDS011;10200;49.232;9.222;2023-07-02T13:42:50;23.00;;;12.63;;
20080;SDS011;10200;49.232;9.222;2023-07-02T13:45:16;22.20;;;12.60;;
20080;SDS011;10200;49.232;9.222;2023-07-02T13:47:42;18.58;;;12.60;;
20080;SDS011;10200;49.232;9.222;2023-07-02T13:50:07;19.13;;;12.13;;
20080;SDS011;10200;49.232;9.222;2023-07-02T13:52:33;20.70;;;11.25;;
20080;SDS011;10200;49.232;9.222;2023-07-02T13:54:59;16.63;;;11.77;;
20080;SDS011;10200;49.232;9.222;2023-07-02T13:57:25;22.67;;;11.32;;
20080;SDS011;10200;49.232;9.222;2023-07-02T13:59:50;18.38;;;11.70;;
20080;SDS011;10200;49.232;9.222;2023-07-02T14:02:16;22.60;;;12.20;;
20080;SDS011;10200;49.232;9.222;2023-07-02T14:04:43;17.00;;;12.27;;
20080;SDS011;10200;49.232;9.222;2023-07-02T14:07:08;18.65;;;12.48;;
20080;SDS011;10200;49.232;9.222;2023-07-02T14:09:34;18.25;;;11.63;;
20080;SDS011;10200;49.232;9.222;2023-07-02T14:12:01;19.23;;;12.00;;
20080;SDS011;10200;49.232;9.222;2023-07-02T14:14:26;23.80;;;12.35;;
20080;SDS011;10200;49.232;9.222;2023-07-02T14:16:52;19.13;;;12.85;;
20080;SDS011;10200;49.232;9.222;2023-07-02T14:19:18;20.60;;;12.70;;
20080;SDS011;10200;49.232;9.222;2023-07-02T14:21:43;20.67;;;12.48;;
20080;SDS011;10200;49.232;9.222;2023-07-02T14:24:11;21.88;;;12.48;;
20080;SDS011;10200;49.232;9.222;2023-07-02T14:26:37;19.80;;;12.07;;
20080;SDS011;10200;49.232;9.222;2023-07-02T14:29:03;19.08;;;12.43;;
20080;SDS011;10200;49.232;9.222;2023-07-02T14:31:28;21.75;;;12.38;;
20080;SDS011;10200;49.232;9.222;2023-07-02T14:33:54;20.52;;;12.88;;
20080;SDS011;10200;49.232;9.222;2023-07-02T14:36:20;18.90;;;12.55;;
20080;SDS011;10200;49.232;9.222;2023-07-02T14:38:46;19.20;;;12.57;;
20080;SDS011;10200;49.232;9.222;2023-07-02T14:41:15;19.05;;;12.75;;
20080;SDS011;10200;49.232;9.222;2023-07-02T14:43:41;19.70;;;11.75;;
20080;SDS011;10200;49.232;9.222;2023-07-02T14:46:06;19.45;;;12.20;;
20080;SDS011;10200;49.232;9.222;2023-07-02T14:48:32;23.80;;;12.18;;